sensor_id;sensor_type;location;lat;lon;timestamp;pressure;altitude;pressure_sealevel;temperature;humidity
61488;BME280;47351;53.326;-6.298;2023-02-23T00:00:36;102022.03;;;4.16;75.64
61488;BME280;47351;53.326;-6.298;2023-02-23T00:03:46;102021.33;;;4.09;75.79
61488;BME280;47351;53.326;-6.298;2023-02-23T00:07:14;102026.90;;;4.04;75.89
61488;BME280;47351;53.326;-6.298;2023-02-23T00:10:29;102031.00;;;4.00;75.96
61488;BME280;47351;53.326;-6.298;2023-02-23T00:13:40;102034.21;;;3.96;76.10
61488;BME280;47351;53.326;-6.298;2023-02-23T00:16:49;102036.15;;;3.93;76.28
61488;BME280;47351;53.326;-6.298;2023-02-23T00:19:58;102039.05;;;3.92;76.32
61488;BME280;47351;53.326;-6.298;2023-02-23T00:23:09;102042.53;;;3.90;76.46
61488;BME280;47351;53.326;-6.298;2023-02-23T00:26:18;102043.58;;;3.86;76.49
61488;BME280;47351;53.326;-6.298;2023-02-23T00:29:28;102045.35;;;3.83;76.48
61488;BME280;47351;53.326;-6.298;2023-02-23T00:32:45;102052.63;;;3.79;76.51
61488;BME280;47351;53.326;-6.298;2023-02-23T00:35:54;102054.48;;;3.74;76.64
61488;BME280;47351;53.326;-6.298;2023-02-23T00:39:07;102057.92;;;3.69;76.73
61488;BME280;47351;53.326;-6.298;2023-02-23T00:42:24;102063.30;;;3.64;76.83
61488;BME280;47351;53.326;-6.298;2023-02-23T00:45:36;102067.73;;;3.60;76.84
61488;BME280;47351;53.326;-6.298;2023-02-23T00:48:45;102071.48;;;3.60;77.07
61488;BME280;47351;53.326;-6.298;2023-02-23T00:51:57;102076.77;;;3.60;77.17
61488;BME280;47351;53.326;-6.298;2023-02-23T00:55:07;102076.77;;;3.60;77.25
61488;BME280;47351;53.326;-6.298;2023-02-23T00:58:16;102077.83;;;3.60;77.28
61488;BME280;47351;53.326;-6.298;2023-02-23T01:05:36;102079.73;;;3.57;77.48
61488;BME280;47351;53.326;-6.298;2023-02-23T01:12:11;102085.83;;;3.55;77.50
61488;BME280;47351;53.326;-6.298;2023-02-23T01:15:44;102091.35;;;3.54;77.42
61488;BME280;47351;53.326;-6.298;2023-02-23T01:19:16;102097.89;;;3.55;77.31
61488;BME280;47351;53.326;-6.298;2023-02-23T01:22:57;102101.80;;;3.54;77.28
61488;BME280;47351;53.326;-6.298;2023-02-23T01:26:12;102102.59;;;3.52;77.17
61488;BME280;47351;53.326;-6.298;2023-02-23T01:29:26;102101.68;;;3.49;77.02
61488;BME280;47351;53.326;-6.298;2023-02-23T01:32:47;102100.09;;;3.46;77.00
61488;BME280;47351;53.326;-6.298;2023-02-23T01:35:57;102099.36;;;3.43;77.02
61488;BME280;47351;53.326;-6.298;2023-02-23T01:39:10;102105.83;;;3.41;77.04
61488;BME280;47351;53.326;-6.298;2023-02-23T01:42:59;102105.41;;;3.38;77.06
61488;BME280;47351;53.326;-6.298;2023-02-23T01:46:30;102113.04;;;3.38;76.96
61488;BME280;47351;53.326;-6.298;2023-02-23T01:49:40;102120.13;;;3.37;76.91
61488;BME280;47351;53.326;-6.298;2023-02-23T01:52:50;102126.98;;;3.34;76.75
61488;BME280;47351;53.326;-6.298;2023-02-23T01:56:19;102135.05;;;3.31;76.69
61488;BME280;47351;53.326;-6.298;2023-02-23T02:00:07;102139.95;;;3.29;76.84
61488;BME280;47351;53.326;-6.298;2023-02-23T02:03:00;102141.36;;;3.25;76.84
61488;BME280;47351;53.326;-6.298;2023-02-23T02:06:16;102140.70;;;3.20;76.70
61488;BME280;47351;53.326;-6.298;2023-02-23T02:09:26;102145.48;;;3.16;76.67
61488;BME280;47351;53.326;-6.298;2023-02-23T02:12:35;102145.66;;;3.13;76.71
61488;BME280;47351;53.326;-6.298;2023-02-23T02:15:49;102149.31;;;3.11;76.68
61488;BME280;47351;53.326;-6.298;2023-02-23T02:19:15;102152.42;;;3.08;76.78
61488;BME280;47351;53.326;-6.298;2023-02-23T02:25:55;102160.56;;;3.00;76.74
61488;BME280;47351;53.326;-6.298;2023-02-23T02:36:18;102171.83;;;2.82;77.06
61488;BME280;47351;53.326;-6.298;2023-02-23T02:39:31;102173.27;;;2.78;77.24
61488;BME280;47351;53.326;-6.298;2023-02-23T02:42:49;102173.46;;;2.73;77.42
61488;BME280;47351;53.326;-6.298;2023-02-23T02:46:03;102171.84;;;2.70;77.52
61488;BME280;47351;53.326;-6.298;2023-02-23T02:49:14;102170.39;;;2.68;77.66
61488;BME280;47351;53.326;-6.298;2023-02-23T02:52:29;102168.73;;;2.65;77.73
61488;BME280;47351;53.326;-6.298;2023-02-23T02:55:42;102172.92;;;2.62;77.78
61488;BME280;47351;53.326;-6.298;2023-02-23T02:58:52;102170.58;;;2.60;77.94
61488;BME280;47351;53.326;-6.298;2023-02-23T03:02:02;102169.42;;;2.58;78.06
61488;BME280;47351;53.326;-6.298;2023-02-23T03:05:43;102176.16;;;2.57;78.16
61488;BME280;47351;53.326;-6.298;2023-02-23T03:13:14;102177.52;;;2.58;78.29
61488;BME280;47351;53.326;-6.298;2023-02-23T03:16:45;102177.80;;;2.60;78.50
61488;BME280;47351;53.326;-6.298;2023-02-23T03:20:17;102175.57;;;2.58;78.66
61488;BME280;47351;53.326;-6.298;2023-02-23T03:23:48;102177.50;;;2.55;78.48
61488;BME280;47351;53.326;-6.298;2023-02-23T03:27:20;102175.80;;;2.49;78.34
61488;BME280;47351;53.326;-6.298;2023-02-23T03:30:50;102179.70;;;2.45;78.35
61488;BME280;47351;53.326;-6.298;2023-02-23T03:34:42;102186.20;;;2.42;78.56
61488;BME280;47351;53.326;-6.298;2023-02-23T03:38:12;102189.42;;;2.37;78.51
61488;BME280;47351;53.326;-6.298;2023-02-23T03:41:42;102191.11;;;2.30;78.41
61488;BME280;47351;53.326;-6.298;2023-02-23T03:45:13;102197.56;;;2.24;78.48
61488;BME280;47351;53.326;-6.298;2023-02-23T03:48:43;102200.46;;;2.19;78.53
61488;BME280;47351;53.326;-6.298;2023-02-23T03:52:12;102203.44;;;2.15;78.62
61488;BME280;47351;53.326;-6.298;2023-02-23T03:55:41;102207.46;;;2.11;78.82
61488;BME280;47351;53.326;-6.298;2023-02-23T03:59:11;102214.39;;;2.10;78.97
61488;BME280;47351;53.326;-6.298;2023-02-23T04:02:41;102216.92;;;2.08;79.12
61488;BME280;47351;53.326;-6.298;2023-02-23T04:06:10;102213.62;;;2.07;79.29
61488;BME280;47351;53.326;-6.298;2023-02-23T04:09:39;102209.67;;;2.09;79.45
61488;BME280;47351;53.326;-6.298;2023-02-23T04:13:00;102210.98;;;2.12;79.52
61488;BME280;47351;53.326;-6.298;2023-02-23T04:16:22;102210.55;;;2.13;79.48
61488;BME280;47351;53.326;-6.298;2023-02-23T04:19:31;102217.83;;;2.16;79.53
61488;BME280;47351;53.326;-6.298;2023-02-23T04:22:40;102224.45;;;2.17;79.54
61488;BME280;47351;53.326;-6.298;2023-02-23T04:25:49;102228.67;;;2.18;79.48
61488;BME280;47351;53.326;-6.298;2023-02-23T04:28:58;102227.67;;;2.16;79.35
61488;BME280;47351;53.326;-6.298;2023-02-23T04:32:08;102229.91;;;2.13;79.35
61488;BME280;47351;53.326;-6.298;2023-02-23T04:35:20;102238.14;;;2.10;79.30
61488;BME280;47351;53.326;-6.298;2023-02-23T04:38:29;102244.70;;;2.06;79.31
61488;BME280;47351;53.326;-6.298;2023-02-23T04:41:38;102243.95;;;2.02;79.36
61488;BME280;47351;53.326;-6.298;2023-02-23T04:44:47;102245.29;;;2.00;79.40
61488;BME280;47351;53.326;-6.298;2023-02-23T04:47:56;102244.67;;;1.98;79.40
61488;BME280;47351;53.326;-6.298;2023-02-23T04:51:05;102240.87;;;1.96;79.35
61488;BME280;47351;53.326;-6.298;2023-02-23T04:54:15;102238.60;;;1.96;79.52
61488;BME280;47351;53.326;-6.298;2023-02-23T04:57:24;102233.51;;;1.96;79.64
61488;BME280;47351;53.326;-6.298;2023-02-23T05:00:33;102238.04;;;1.97;79.70
61488;BME280;47351;53.326;-6.298;2023-02-23T05:03:42;102243.61;;;1.98;79.73
61488;BME280;47351;53.326;-6.298;2023-02-23T05:06:51;102246.85;;;2.01;79.64
61488;BME280;47351;53.326;-6.298;2023-02-23T05:10:00;102246.06;;;2.03;79.52
61488;BME280;47351;53.326;-6.298;2023-02-23T05:13:09;102249.41;;;2.02;79.39
61488;BME280;47351;53.326;-6.298;2023-02-23T05:16:18;102248.44;;;2.00;79.29
61488;BME280;47351;53.326;-6.298;2023-02-23T05:19:27;102248.03;;;1.98;79.40
61488;BME280;47351;53.326;-6.298;2023-02-23T05:22:36;102244.66;;;1.94;79.39
61488;BME280;47351;53.326;-6.298;2023-02-23T05:25:45;102234.65;;;1.90;79.29
61488;BME280;47351;53.326;-6.298;2023-02-23T05:28:54;102226.75;;;1.84;79.36
61488;BME280;47351;53.326;-6.298;2023-02-23T05:32:04;102222.07;;;1.78;79.25
61488;BME280;47351;53.326;-6.298;2023-02-23T05:35:14;102215.57;;;1.74;79.30
61488;BME280;47351;53.326;-6.298;2023-02-23T05:38:23;102218.58;;;1.69;79.38
61488;BME280;47351;53.326;-6.298;2023-02-23T05:41:32;102226.73;;;1.64;79.38
61488;BME280;47351;53.326;-6.298;2023-02-23T05:44:41;102228.34;;;1.59;79.55
61488;BME280;47351;53.326;-6.298;2023-02-23T05:47:50;102231.52;;;1.54;79.68
61488;BME280;47351;53.326;-6.298;2023-02-23T05:51:21;102236.35;;;1.48;79.82
61488;BME280;47351;53.326;-6.298;2023-02-23T05:54:29;102240.08;;;1.43;80.04
61488;BME280;47351;53.326;-6.298;2023-02-23T05:57:39;102242.92;;;1.37;80.11
61488;BME280;47351;53.326;-6.298;2023-02-23T06:00:51;102241.80;;;1.31;80.15
61488;BME280;47351;53.326;-6.298;2023-02-23T06:03:57;102237.84;;;1.24;80.21
61488;BME280;47351;53.326;-6.298;2023-02-23T06:07:06;102239.62;;;1.19;80.25
61488;BME280;47351;53.326;-6.298;2023-02-23T06:10:15;102241.20;;;1.14;80.35
61488;BME280;47351;53.326;-6.298;2023-02-23T06:13:26;102236.77;;;1.11;80.59
61488;BME280;47351;53.326;-6.298;2023-02-23T06:16:36;102236.89;;;1.08;80.86
61488;BME280;47351;53.326;-6.298;2023-02-23T06:20:03;102235.09;;;1.04;80.89
61488;BME280;47351;53.326;-6.298;2023-02-23T06:23:26;102231.98;;;0.99;80.87
61488;BME280;47351;53.326;-6.298;2023-02-23T06:26:38;102233.09;;;0.92;80.86
61488;BME280;47351;53.326;-6.298;2023-02-23T06:29:48;102233.86;;;0.90;80.97
61488;BME280;47351;53.326;-6.298;2023-02-23T06:32:56;102231.77;;;0.90;81.37
61488;BME280;47351;53.326;-6.298;2023-02-23T06:35:59;102229.77;;;0.92;81.77
61488;BME280;47351;53.326;-6.298;2023-02-23T06:39:08;102227.50;;;0.96;82.11
61488;BME280;47351;53.326;-6.298;2023-02-23T06:42:37;102232.83;;;0.99;82.23
61488;BME280;47351;53.326;-6.298;2023-02-23T06:45:55;102238.88;;;1.02;82.30
61488;BME280;47351;53.326;-6.298;2023-02-23T06:49:07;102246.19;;;1.03;82.12
61488;BME280;47351;53.326;-6.298;2023-02-23T06:52:16;102257.25;;;1.04;82.15
61488;BME280;47351;53.326;-6.298;2023-02-23T06:59:01;102255.42;;;1.06;82.43
61488;BME280;47351;53.326;-6.298;2023-02-23T07:02:10;102260.68;;;1.06;82.19
61488;BME280;47351;53.326;-6.298;2023-02-23T07:05:20;102265.49;;;1.05;82.00
61488;BME280;47351;53.326;-6.298;2023-02-23T07:08:32;102277.88;;;1.03;82.04
61488;BME280;47351;53.326;-6.298;2023-02-23T07:11:41;102284.80;;;1.01;82.06
61488;BME280;47351;53.326;-6.298;2023-02-23T07:14:51;102284.91;;;0.98;82.04
61488;BME280;47351;53.326;-6.298;2023-02-23T07:18:01;102282.73;;;0.95;82.08
61488;BME280;47351;53.326;-6.298;2023-02-23T07:21:10;102280.60;;;0.91;82.22
61488;BME280;47351;53.326;-6.298;2023-02-23T07:24:20;102290.17;;;0.89;82.21
61488;BME280;47351;53.326;-6.298;2023-02-23T07:27:29;102297.45;;;0.87;82.39
61488;BME280;47351;53.326;-6.298;2023-02-23T07:30:38;102299.30;;;0.84;82.47
61488;BME280;47351;53.326;-6.298;2023-02-23T07:33:47;102306.08;;;0.82;82.51
61488;BME280;47351;53.326;-6.298;2023-02-23T07:36:56;102313.14;;;0.81;82.60
61488;BME280;47351;53.326;-6.298;2023-02-23T07:40:06;102319.27;;;0.81;82.70
61488;BME280;47351;53.326;-6.298;2023-02-23T07:43:15;102320.45;;;0.83;82.84
61488;BME280;47351;53.326;-6.298;2023-02-23T07:46:07;102323.67;;;0.86;82.89
61488;BME280;47351;53.326;-6.298;2023-02-23T07:49:18;102334.58;;;0.90;83.03
61488;BME280;47351;53.326;-6.298;2023-02-23T07:52:32;102337.17;;;0.97;83.08
61488;BME280;47351;53.326;-6.298;2023-02-23T07:55:33;102335.00;;;1.03;83.22
61488;BME280;47351;53.326;-6.298;2023-02-23T07:58:45;102335.36;;;1.12;83.34
61488;BME280;47351;53.326;-6.298;2023-02-23T08:01:54;102336.77;;;1.21;83.44
61488;BME280;47351;53.326;-6.298;2023-02-23T08:05:03;102343.77;;;1.32;83.35
61488;BME280;47351;53.326;-6.298;2023-02-23T08:08:32;102352.88;;;1.42;83.17
61488;BME280;47351;53.326;-6.298;2023-02-23T08:11:42;102356.17;;;1.53;83.17
61488;BME280;47351;53.326;-6.298;2023-02-23T08:14:52;102356.98;;;1.63;83.00
61488;BME280;47351;53.326;-6.298;2023-02-23T08:18:01;102354.84;;;1.73;82.86
61488;BME280;47351;53.326;-6.298;2023-02-23T08:21:10;102353.60;;;1.82;82.74
61488;BME280;47351;53.326;-6.298;2023-02-23T08:24:19;102354.14;;;1.91;82.42
61488;BME280;47351;53.326;-6.298;2023-02-23T08:27:29;102357.55;;;1.98;82.18
61488;BME280;47351;53.326;-6.298;2023-02-23T08:30:39;102365.76;;;2.04;82.01
61488;BME280;47351;53.326;-6.298;2023-02-23T08:33:49;102371.33;;;2.10;81.88
61488;BME280;47351;53.326;-6.298;2023-02-23T08:36:58;102369.16;;;2.15;81.78
61488;BME280;47351;53.326;-6.298;2023-02-23T08:40:11;102369.09;;;2.21;81.68
61488;BME280;47351;53.326;-6.298;2023-02-23T08:43:22;102374.48;;;2.27;81.48
61488;BME280;47351;53.326;-6.298;2023-02-23T08:46:31;102369.80;;;2.34;81.46
61488;BME280;47351;53.326;-6.298;2023-02-23T08:49:40;102362.82;;;2.41;81.48
61488;BME280;47351;53.326;-6.298;2023-02-23T08:52:49;102360.96;;;2.47;81.26
61488;BME280;47351;53.326;-6.298;2023-02-23T08:55:58;102366.61;;;2.55;81.25
61488;BME280;47351;53.326;-6.298;2023-02-23T08:59:08;102369.73;;;2.65;81.17
61488;BME280;47351;53.326;-6.298;2023-02-23T09:02:17;102377.69;;;2.76;81.14
61488;BME280;47351;53.326;-6.298;2023-02-23T09:05:28;102372.50;;;2.90;81.01
61488;BME280;47351;53.326;-6.298;2023-02-23T09:08:37;102367.77;;;3.05;80.90
61488;BME280;47351;53.326;-6.298;2023-02-23T09:11:46;102369.59;;;3.23;80.67
61488;BME280;47351;53.326;-6.298;2023-02-23T09:14:55;102371.73;;;3.53;80.10
61488;BME280;47351;53.326;-6.298;2023-02-23T09:18:02;102375.62;;;4.12;78.68
61488;BME280;47351;53.326;-6.298;2023-02-23T09:21:13;102373.36;;;4.36;78.36
61488;BME280;47351;53.326;-6.298;2023-02-23T09:24:26;102370.91;;;4.53;78.15
61488;BME280;47351;53.326;-6.298;2023-02-23T09:31:11;102373.05;;;4.70;77.56
61488;BME280;47351;53.326;-6.298;2023-02-23T09:34:23;102369.77;;;4.72;77.11
61488;BME280;47351;53.326;-6.298;2023-02-23T09:37:32;102373.48;;;4.72;77.13
61488;BME280;47351;53.326;-6.298;2023-02-23T09:40:43;102376.97;;;4.73;77.04
61488;BME280;47351;53.326;-6.298;2023-02-23T09:43:55;102374.87;;;4.73;77.00
61488;BME280;47351;53.326;-6.298;2023-02-23T09:47:11;102375.23;;;4.76;77.03
61488;BME280;47351;53.326;-6.298;2023-02-23T09:50:24;102376.31;;;4.79;76.99
61488;BME280;47351;53.326;-6.298;2023-02-23T09:53:36;102374.73;;;4.82;76.91
61488;BME280;47351;53.326;-6.298;2023-02-23T09:56:46;102376.75;;;4.87;76.99
61488;BME280;47351;53.326;-6.298;2023-02-23T09:59:55;102383.07;;;4.92;76.86
61488;BME280;47351;53.326;-6.298;2023-02-23T10:03:44;102376.03;;;4.98;76.84
61488;BME280;47351;53.326;-6.298;2023-02-23T10:06:53;102373.19;;;5.04;76.86
61488;BME280;47351;53.326;-6.298;2023-02-23T10:10:09;102371.67;;;5.13;76.85
61488;BME280;47351;53.326;-6.298;2023-02-23T10:13:24;102368.08;;;5.21;76.72
61488;BME280;47351;53.326;-6.298;2023-02-23T10:16:41;102363.73;;;5.29;76.56
61488;BME280;47351;53.326;-6.298;2023-02-23T10:19:54;102360.70;;;5.36;76.31
61488;BME280;47351;53.326;-6.298;2023-02-23T10:23:06;102359.24;;;5.43;76.19
61488;BME280;47351;53.326;-6.298;2023-02-23T10:26:10;102360.71;;;5.52;76.00
61488;BME280;47351;53.326;-6.298;2023-02-23T10:29:24;102359.33;;;5.61;75.73
61488;BME280;47351;53.326;-6.298;2023-02-23T10:32:37;102357.46;;;5.72;75.60
61488;BME280;47351;53.326;-6.298;2023-02-23T10:35:29;102359.52;;;5.86;75.46
61488;BME280;47351;53.326;-6.298;2023-02-23T10:38:39;102357.52;;;6.09;75.14
61488;BME280;47351;53.326;-6.298;2023-02-23T10:41:48;102355.64;;;6.29;74.68
61488;BME280;47351;53.326;-6.298;2023-02-23T10:44:45;102357.34;;;6.36;74.29
61488;BME280;47351;53.326;-6.298;2023-02-23T10:47:44;102360.86;;;6.40;74.06
61488;BME280;47351;53.326;-6.298;2023-02-23T10:50:54;102360.67;;;6.43;73.77
61488;BME280;47351;53.326;-6.298;2023-02-23T10:54:00;102363.23;;;6.51;73.65
61488;BME280;47351;53.326;-6.298;2023-02-23T10:57:28;102366.16;;;6.61;73.57
61488;BME280;47351;53.326;-6.298;2023-02-23T11:00:38;102364.64;;;6.71;73.47
61488;BME280;47351;53.326;-6.298;2023-02-23T11:03:47;102365.81;;;6.84;73.37
61488;BME280;47351;53.326;-6.298;2023-02-23T11:07:08;102363.07;;;7.00;72.98
61488;BME280;47351;53.326;-6.298;2023-02-23T11:10:24;102359.39;;;7.17;72.38
61488;BME280;47351;53.326;-6.298;2023-02-23T11:13:33;102353.73;;;8.30;71.83
61488;BME280;47351;53.326;-6.298;2023-02-23T11:16:28;102339.24;;;11.98;67.32
61488;BME280;47351;53.326;-6.298;2023-02-23T11:19:19;102321.63;;;14.97;61.64
61488;BME280;47351;53.326;-6.298;2023-02-23T11:22:16;102310.44;;;17.83;57.74
61488;BME280;47351;53.326;-6.298;2023-02-23T11:25:14;102308.55;;;19.58;53.21
61488;BME280;47351;53.326;-6.298;2023-02-23T11:28:03;102310.40;;;19.09;49.50
61488;BME280;47351;53.326;-6.298;2023-02-23T11:30:54;102305.19;;;19.82;47.43
61488;BME280;47351;53.326;-6.298;2023-02-23T11:33:43;102302.06;;;20.12;45.67
61488;BME280;47351;53.326;-6.298;2023-02-23T11:36:33;102295.60;;;21.93;43.92
61488;BME280;47351;53.326;-6.298;2023-02-23T11:39:22;102285.91;;;23.66;41.99
61488;BME280;47351;53.326;-6.298;2023-02-23T11:42:15;102287.63;;;24.42;40.85
61488;BME280;47351;53.326;-6.298;2023-02-23T11:45:06;102282.84;;;25.16;37.12
61488;BME280;47351;53.326;-6.298;2023-02-23T11:48:01;102277.16;;;26.34;36.59
61488;BME280;47351;53.326;-6.298;2023-02-23T11:50:51;102269.75;;;27.52;35.55
61488;BME280;47351;53.326;-6.298;2023-02-23T11:53:48;102270.99;;;28.65;33.05
61488;BME280;47351;53.326;-6.298;2023-02-23T11:56:36;102266.89;;;29.05;30.45
61488;BME280;47351;53.326;-6.298;2023-02-23T11:59:26;102262.69;;;29.15;29.60
61488;BME280;47351;53.326;-6.298;2023-02-23T12:02:19;102254.36;;;29.55;29.56
61488;BME280;47351;53.326;-6.298;2023-02-23T12:05:22;102247.19;;;30.47;29.54
61488;BME280;47351;53.326;-6.298;2023-02-23T12:08:13;102247.01;;;31.33;28.32
61488;BME280;47351;53.326;-6.298;2023-02-23T12:11:04;102248.45;;;31.41;26.51
61488;BME280;47351;53.326;-6.298;2023-02-23T12:13:54;102246.01;;;31.36;25.96
61488;BME280;47351;53.326;-6.298;2023-02-23T12:16:47;102243.02;;;31.60;25.03
61488;BME280;47351;53.326;-6.298;2023-02-23T12:19:38;102240.16;;;31.67;23.82
61488;BME280;47351;53.326;-6.298;2023-02-23T12:22:30;102238.02;;;31.28;23.53
61488;BME280;47351;53.326;-6.298;2023-02-23T12:25:21;102231.42;;;31.15;23.84
61488;BME280;47351;53.326;-6.298;2023-02-23T12:28:13;102222.79;;;31.46;23.93
61488;BME280;47351;53.326;-6.298;2023-02-23T12:31:19;102216.76;;;31.75;23.39
61488;BME280;47351;53.326;-6.298;2023-02-23T12:34:10;102213.67;;;31.78;22.17
61488;BME280;47351;53.326;-6.298;2023-02-23T12:37:02;102212.90;;;31.65;22.72
61488;BME280;47351;53.326;-6.298;2023-02-23T12:39:57;102207.46;;;32.04;22.61
61488;BME280;47351;53.326;-6.298;2023-02-23T12:42:53;102203.83;;;32.40;21.89
61488;BME280;47351;53.326;-6.298;2023-02-23T12:45:44;102195.17;;;32.56;22.16
61488;BME280;47351;53.326;-6.298;2023-02-23T12:48:37;102189.55;;;32.85;21.63
61488;BME280;47351;53.326;-6.298;2023-02-23T12:51:30;102182.77;;;32.63;21.13
61488;BME280;47351;53.326;-6.298;2023-02-23T12:54:20;102184.88;;;32.61;20.57
61488;BME280;47351;53.326;-6.298;2023-02-23T12:57:11;102185.11;;;32.44;20.34
61488;BME280;47351;53.326;-6.298;2023-02-23T13:00:10;102184.91;;;31.98;20.59
61488;BME280;47351;53.326;-6.298;2023-02-23T13:03:30;102176.35;;;30.26;21.20
61488;BME280;47351;53.326;-6.298;2023-02-23T13:06:24;102172.13;;;29.59;21.64
61488;BME280;47351;53.326;-6.298;2023-02-23T13:09:23;102169.75;;;29.07;21.62
61488;BME280;47351;53.326;-6.298;2023-02-23T13:12:22;102163.48;;;29.00;22.06
61488;BME280;47351;53.326;-6.298;2023-02-23T13:15:19;102160.11;;;28.85;21.51
61488;BME280;47351;53.326;-6.298;2023-02-23T13:18:11;102160.20;;;28.26;21.74
61488;BME280;47351;53.326;-6.298;2023-02-23T13:21:03;102159.64;;;27.57;21.99
61488;BME280;47351;53.326;-6.298;2023-02-23T13:23:54;102154.55;;;27.12;22.51
61488;BME280;47351;53.326;-6.298;2023-02-23T13:26:52;102153.44;;;26.94;22.64
61488;BME280;47351;53.326;-6.298;2023-02-23T13:29:55;102149.45;;;26.50;22.46
61488;BME280;47351;53.326;-6.298;2023-02-23T13:36:14;102139.52;;;25.78;23.20
61488;BME280;47351;53.326;-6.298;2023-02-23T13:39:50;102143.14;;;25.37;23.58
61488;BME280;47351;53.326;-6.298;2023-02-23T13:42:47;102148.50;;;25.32;24.06
61488;BME280;47351;53.326;-6.298;2023-02-23T13:46:16;102145.38;;;25.07;24.08
61488;BME280;47351;53.326;-6.298;2023-02-23T13:49:49;102138.53;;;25.03;24.44
61488;BME280;47351;53.326;-6.298;2023-02-23T13:53:35;102135.41;;;24.80;24.58
61488;BME280;47351;53.326;-6.298;2023-02-23T13:57:47;102137.98;;;24.59;24.91
61488;BME280;47351;53.326;-6.298;2023-02-23T14:00:36;102148.37;;;24.03;24.72
61488;BME280;47351;53.326;-6.298;2023-02-23T14:03:25;102143.02;;;23.47;25.32
61488;BME280;47351;53.326;-6.298;2023-02-23T14:06:27;102138.89;;;23.11;26.02
61488;BME280;47351;53.326;-6.298;2023-02-23T14:09:18;102139.75;;;22.57;25.73
61488;BME280;47351;53.326;-6.298;2023-02-23T14:12:21;102137.07;;;22.07;26.20
61488;BME280;47351;53.326;-6.298;2023-02-23T14:15:28;102137.79;;;21.03;26.92
61488;BME280;47351;53.326;-6.298;2023-02-23T14:18:28;102139.34;;;19.79;28.49
61488;BME280;47351;53.326;-6.298;2023-02-23T14:21:18;102139.48;;;19.11;29.25
61488;BME280;47351;53.326;-6.298;2023-02-23T14:24:15;102137.43;;;18.74;30.03
61488;BME280;47351;53.326;-6.298;2023-02-23T14:30:30;102134.98;;;18.02;31.04
61488;BME280;47351;53.326;-6.298;2023-02-23T14:33:34;102141.27;;;17.55;31.53
61488;BME280;47351;53.326;-6.298;2023-02-23T14:36:34;102144.09;;;16.86;32.21
61488;BME280;47351;53.326;-6.298;2023-02-23T14:39:26;102145.98;;;16.08;33.38
61488;BME280;47351;53.326;-6.298;2023-02-23T14:42:19;102144.77;;;15.51;34.50
61488;BME280;47351;53.326;-6.298;2023-02-23T14:45:15;102143.55;;;15.45;34.91
61488;BME280;47351;53.326;-6.298;2023-02-23T14:48:05;102134.98;;;15.43;35.13
61488;BME280;47351;53.326;-6.298;2023-02-23T14:51:08;102133.56;;;15.38;35.57
61488;BME280;47351;53.326;-6.298;2023-02-23T14:54:09;102135.48;;;15.44;35.85
61488;BME280;47351;53.326;-6.298;2023-02-23T14:56:58;102135.05;;;15.10;36.14
61488;BME280;47351;53.326;-6.298;2023-02-23T14:59:51;102128.99;;;15.04;36.39
61488;BME280;47351;53.326;-6.298;2023-02-23T15:02:50;102123.42;;;15.01;36.56
61488;BME280;47351;53.326;-6.298;2023-02-23T15:05:42;102120.88;;;14.72;36.99
61488;BME280;47351;53.326;-6.298;2023-02-23T15:08:32;102112.79;;;14.40;37.84
61488;BME280;47351;53.326;-6.298;2023-02-23T15:11:26;102108.32;;;14.18;38.37
61488;BME280;47351;53.326;-6.298;2023-02-23T15:14:14;102102.69;;;13.98;38.81
61488;BME280;47351;53.326;-6.298;2023-02-23T15:17:17;102107.31;;;13.79;39.08
61488;BME280;47351;53.326;-6.298;2023-02-23T15:20:07;102112.51;;;13.57;39.57
61488;BME280;47351;53.326;-6.298;2023-02-23T15:23:09;102107.56;;;13.40;40.18
61488;BME280;47351;53.326;-6.298;2023-02-23T15:25:59;102103.45;;;13.28;40.39
61488;BME280;47351;53.326;-6.298;2023-02-23T15:29:03;102102.55;;;13.12;40.90
61488;BME280;47351;53.326;-6.298;2023-02-23T15:31:53;102097.30;;;12.88;41.33
61488;BME280;47351;53.326;-6.298;2023-02-23T15:34:46;102094.02;;;12.61;41.83
61488;BME280;47351;53.326;-6.298;2023-02-23T15:37:37;102092.55;;;12.47;42.55
61488;BME280;47351;53.326;-6.298;2023-02-23T15:41:05;102088.85;;;12.36;42.97
61488;BME280;47351;53.326;-6.298;2023-02-23T15:44:02;102093.73;;;12.21;43.43
61488;BME280;47351;53.326;-6.298;2023-02-23T15:46:53;102098.80;;;11.96;43.68
61488;BME280;47351;53.326;-6.298;2023-02-23T15:50:04;102101.34;;;11.68;44.22
61488;BME280;47351;53.326;-6.298;2023-02-23T15:52:57;102111.75;;;11.40;44.81
61488;BME280;47351;53.326;-6.298;2023-02-23T15:56:02;102114.63;;;11.16;45.55
61488;BME280;47351;53.326;-6.298;2023-02-23T15:58:51;102110.48;;;10.98;46.07
61488;BME280;47351;53.326;-6.298;2023-02-23T16:01:58;102100.41;;;10.79;46.52
61488;BME280;47351;53.326;-6.298;2023-02-23T16:05:17;102104.46;;;10.66;46.94
61488;BME280;47351;53.326;-6.298;2023-02-23T16:08:16;102102.38;;;10.55;47.48
61488;BME280;47351;53.326;-6.298;2023-02-23T16:11:29;102102.04;;;10.44;47.95
61488;BME280;47351;53.326;-6.298;2023-02-23T16:14:23;102102.97;;;10.39;48.33
61488;BME280;47351;53.326;-6.298;2023-02-23T16:17:24;102099.66;;;10.29;48.95
61488;BME280;47351;53.326;-6.298;2023-02-23T16:20:35;102102.59;;;10.18;49.40
61488;BME280;47351;53.326;-6.298;2023-02-23T16:23:29;102099.61;;;10.09;49.88
61488;BME280;47351;53.326;-6.298;2023-02-23T16:26:32;102101.10;;;10.04;50.51
61488;BME280;47351;53.326;-6.298;2023-02-23T16:29:26;102098.16;;;9.95;50.89
61488;BME280;47351;53.326;-6.298;2023-02-23T16:32:18;102102.70;;;9.88;51.26
61488;BME280;47351;53.326;-6.298;2023-02-23T16:35:32;102104.27;;;9.76;51.88
61488;BME280;47351;53.326;-6.298;2023-02-23T16:38:23;102106.11;;;9.69;52.32
61488;BME280;47351;53.326;-6.298;2023-02-23T16:41:28;102103.02;;;9.60;52.93
61488;BME280;47351;53.326;-6.298;2023-02-23T16:44:37;102099.14;;;9.50;53.40
61488;BME280;47351;53.326;-6.298;2023-02-23T16:47:34;102092.30;;;9.42;53.82
61488;BME280;47351;53.326;-6.298;2023-02-23T16:50:47;102086.22;;;9.36;54.15
61488;BME280;47351;53.326;-6.298;2023-02-23T16:53:57;102086.30;;;9.32;54.46
61488;BME280;47351;53.326;-6.298;2023-02-23T16:56:49;102084.59;;;9.26;54.70